createdAt,value
2018-07-13T00:01:18.906Z,19.40
2018-07-13T00:03:46.578Z,19.40
2018-07-13T00:06:14.233Z,19.40
2018-07-13T00:08:41.899Z,19.40
2018-07-13T00:13:57.807Z,19.30
2018-07-13T00:16:25.713Z,19.30
2018-07-13T00:18:53.551Z,19.30
2018-07-13T00:21:21.225Z,19.30
2018-07-13T00:23:48.889Z,19.30
2018-07-13T00:26:16.557Z,19.30
2018-07-13T00:28:44.429Z,19.30
2018-07-13T00:31:12.087Z,19.30
2018-07-13T00:33:39.719Z,19.30
2018-07-13T00:36:07.453Z,19.20
2018-07-13T00:38:35.134Z,19.20
2018-07-13T00:41:02.793Z,19.00
2018-07-13T00:43:30.492Z,19.00
2018-07-13T00:45:58.190Z,19.00
2018-07-13T00:48:25.897Z,19.00
2018-07-13T00:50:53.572Z,18.90
2018-07-13T00:53:21.261Z,18.90
2018-07-13T00:55:48.953Z,18.80
2018-07-13T00:58:16.775Z,18.90
2018-07-13T01:00:44.415Z,18.90
2018-07-13T01:03:12.070Z,18.90
2018-07-13T01:05:39.946Z,18.80
2018-07-13T01:08:07.621Z,18.80
2018-07-13T01:10:35.306Z,18.80
2018-07-13T01:13:03.016Z,18.80
2018-07-13T01:15:30.771Z,18.80
2018-07-13T01:17:58.470Z,18.80
2018-07-13T01:20:26.366Z,18.70
2018-07-13T01:22:54.175Z,18.70
2018-07-13T01:25:21.818Z,18.70
2018-07-13T01:27:49.519Z,18.70
2018-07-13T01:30:17.214Z,18.60
2018-07-13T01:32:45.048Z,18.60
2018-07-13T01:35:12.735Z,18.60
2018-07-13T01:37:40.368Z,18.50
2018-07-13T01:40:08.022Z,18.50
2018-07-13T01:42:35.893Z,18.50
2018-07-13T01:45:03.769Z,18.60
2018-07-13T01:47:31.580Z,18.50
2018-07-13T01:49:59.471Z,18.50
2018-07-13T01:52:27.182Z,18.50
2018-07-13T01:54:55.058Z,18.40
2018-07-13T01:57:22.858Z,18.40
2018-07-13T01:59:50.508Z,18.50
2018-07-13T02:02:18.447Z,18.50
2018-07-13T02:04:46.531Z,18.50
2018-07-13T02:07:14.208Z,18.40
2018-07-13T02:09:41.857Z,18.30
2018-07-13T02:12:09.739Z,18.20
2018-07-13T02:14:37.385Z,18.20
2018-07-13T02:17:05.648Z,18.10
2018-07-13T02:19:33.466Z,17.90
2018-07-13T02:22:01.132Z,17.90
2018-07-13T02:24:28.799Z,17.90
2018-07-13T02:26:56.632Z,17.90
2018-07-13T02:31:51.892Z,17.90
2018-07-13T02:34:19.567Z,18.00
2018-07-13T02:36:47.312Z,17.90
2018-07-13T02:39:15.000Z,18.00
2018-07-13T02:41:42.694Z,17.90
2018-07-13T02:44:10.370Z,17.90
2018-07-13T02:46:38.048Z,17.90
2018-07-13T02:49:05.696Z,17.90
2018-07-13T02:54:00.928Z,18.00
2018-07-13T02:58:56.555Z,17.90
2018-07-13T03:01:24.782Z,17.90
2018-07-13T03:03:52.753Z,17.80
2018-07-13T03:06:20.405Z,17.70
2018-07-13T03:08:48.057Z,17.60
2018-07-13T03:11:15.720Z,17.80
2018-07-13T03:13:43.397Z,17.80
2018-07-13T03:16:11.070Z,17.70
2018-07-13T03:18:38.784Z,17.70
2018-07-13T03:21:06.513Z,17.60
2018-07-13T03:23:34.178Z,17.50
2018-07-13T03:26:01.873Z,17.40
2018-07-13T03:28:29.764Z,17.40
2018-07-13T03:30:57.425Z,17.40
2018-07-13T03:33:25.091Z,17.50
2018-07-13T03:35:52.745Z,17.60
2018-07-13T03:38:20.439Z,17.60
2018-07-13T03:40:48.101Z,17.60
2018-07-13T03:43:15.779Z,17.60
2018-07-13T03:45:43.426Z,17.70
2018-07-13T03:48:11.216Z,17.70
2018-07-13T03:50:38.892Z,17.80
2018-07-13T03:53:06.775Z,17.80
2018-07-13T03:55:34.673Z,17.70
2018-07-13T03:58:02.358Z,17.60
2018-07-13T04:00:30.079Z,17.70
2018-07-13T04:02:57.749Z,17.80
2018-07-13T04:05:25.411Z,17.80
2018-07-13T04:07:53.377Z,17.90
2018-07-13T04:10:21.071Z,17.90
2018-07-13T04:12:48.727Z,17.90
2018-07-13T04:15:16.406Z,18.00
2018-07-13T04:17:44.213Z,18.00
2018-07-13T04:20:11.887Z,18.00
2018-07-13T04:22:39.674Z,18.00
2018-07-13T04:25:07.367Z,18.10
2018-07-13T04:27:36.503Z,18.00
2018-07-13T04:30:04.919Z,18.10
2018-07-13T04:32:32.753Z,18.10
2018-07-13T04:35:00.419Z,18.20
2018-07-13T04:37:28.159Z,18.10
2018-07-13T04:39:55.807Z,18.10
2018-07-13T04:42:23.481Z,18.10
2018-07-13T04:44:51.149Z,18.20
2018-07-13T04:47:19.041Z,18.20
2018-07-13T04:49:46.904Z,18.20
2018-07-13T04:52:14.692Z,18.20
2018-07-13T04:54:42.487Z,18.20
2018-07-13T04:57:10.196Z,18.30
2018-07-13T04:59:38.141Z,18.30
2018-07-13T05:02:05.951Z,18.40
2018-07-13T05:04:33.933Z,18.40
2018-07-13T05:07:01.679Z,18.40
2018-07-13T05:09:29.481Z,18.50
2018-07-13T05:11:57.229Z,18.50
2018-07-13T05:14:24.914Z,18.50
2018-07-13T05:16:52.798Z,18.50
2018-07-13T05:19:20.618Z,18.60
2018-07-13T05:21:48.399Z,18.70
2018-07-13T05:24:16.278Z,18.70
2018-07-13T05:26:44.076Z,18.60
2018-07-13T05:31:40.111Z,18.70
2018-07-13T05:34:08.124Z,18.70
2018-07-13T05:36:35.912Z,18.80
2018-07-13T05:39:05.333Z,18.90
2018-07-13T05:41:33.116Z,18.90
2018-07-13T05:44:00.877Z,19.00
2018-07-13T05:46:28.660Z,19.10
2018-07-13T05:48:56.509Z,19.10
2018-07-13T05:51:24.271Z,19.10
2018-07-13T05:56:19.677Z,19.30
2018-07-13T05:58:47.961Z,19.30
2018-07-13T06:01:15.790Z,19.40
2018-07-13T06:03:43.701Z,19.50
2018-07-13T06:06:11.482Z,19.30
2018-07-13T06:08:39.244Z,19.30
2018-07-13T06:11:07.057Z,19.40
2018-07-13T06:13:34.969Z,19.50
2018-07-13T06:16:02.659Z,19.60
2018-07-13T06:18:30.351Z,19.80
2018-07-13T06:20:57.981Z,19.90
2018-07-13T06:23:25.746Z,20.00
2018-07-13T06:25:53.431Z,20.00
2018-07-13T06:28:21.229Z,20.10
2018-07-13T06:30:49.293Z,20.20
2018-07-13T06:33:16.968Z,20.20
2018-07-13T06:35:44.834Z,20.30
2018-07-13T06:38:12.606Z,20.40
2018-07-13T06:40:40.428Z,20.50
2018-07-13T06:43:08.453Z,20.50
2018-07-13T06:45:37.172Z,20.50
2018-07-13T06:48:05.093Z,20.60
2018-07-13T06:50:32.981Z,20.70
2018-07-13T06:53:00.608Z,20.80
2018-07-13T06:55:28.345Z,20.70
2018-07-13T06:58:07.300Z,20.90
2018-07-13T07:01:06.931Z,20.80
2018-07-13T07:03:41.456Z,21.00
2018-07-13T07:06:12.372Z,21.20
2018-07-13T07:08:41.181Z,21.20
2018-07-13T07:11:09.453Z,21.40
2018-07-13T07:13:39.366Z,21.50
2018-07-13T07:16:07.076Z,21.50
2018-07-13T07:18:34.881Z,21.50
2018-07-13T07:21:02.752Z,21.40
2018-07-13T07:25:59.558Z,21.40
2018-07-13T07:28:27.413Z,21.60
2018-07-13T07:30:56.080Z,21.60
2018-07-13T07:33:23.900Z,21.70
2018-07-13T07:35:52.010Z,21.90
2018-07-13T07:38:19.789Z,22.00
2018-07-13T07:40:48.121Z,21.70
2018-07-13T07:43:16.117Z,21.60
2018-07-13T07:45:44.083Z,21.60
2018-07-13T07:48:12.133Z,21.60
2018-07-13T07:50:39.862Z,21.70
2018-07-13T07:53:07.607Z,21.70
2018-07-13T07:55:35.271Z,21.70
2018-07-13T07:58:03.192Z,22.10
2018-07-13T08:00:31.036Z,22.60
2018-07-13T08:02:58.882Z,22.80
2018-07-13T08:05:26.684Z,23.00
2018-07-13T08:07:54.434Z,23.40
2018-07-13T08:10:22.317Z,23.40
2018-07-13T08:12:50.393Z,23.60
2018-07-13T08:15:18.170Z,23.90
2018-07-13T08:17:45.809Z,24.10
2018-07-13T08:20:21.888Z,24.20
2018-07-13T08:22:53.805Z,23.80
2018-07-13T08:25:22.132Z,23.90
2018-07-13T08:27:52.564Z,24.10
2018-07-13T08:32:55.014Z,24.30
2018-07-13T08:35:22.650Z,24.50
2018-07-13T08:37:50.488Z,24.20
2018-07-13T08:40:18.132Z,24.20
2018-07-13T08:42:45.836Z,24.70
2018-07-13T08:45:13.580Z,25.00
2018-07-13T08:47:41.259Z,25.20
2018-07-13T08:50:08.995Z,25.20
2018-07-13T08:52:36.753Z,25.50
2018-07-13T08:57:37.160Z,25.70
2018-07-13T09:00:05.365Z,25.70
2018-07-13T09:02:33.297Z,26.40
2018-07-13T09:05:01.387Z,26.20
2018-07-13T09:07:30.568Z,26.30
2018-07-13T09:09:58.921Z,26.00
2018-07-13T09:12:27.021Z,26.00
2018-07-13T09:14:55.088Z,26.20
2018-07-13T09:17:22.984Z,26.00
2018-07-13T09:19:51.097Z,25.70
2018-07-13T09:22:18.824Z,25.60
2018-07-13T09:24:46.647Z,25.40
2018-07-13T09:27:14.557Z,25.40
2018-07-13T09:29:42.246Z,25.70
2018-07-13T09:32:09.977Z,26.10
2018-07-13T09:34:37.822Z,26.50
2018-07-13T09:37:05.779Z,26.40
2018-07-13T09:39:33.487Z,26.30
2018-07-13T09:42:01.344Z,26.40
2018-07-13T09:44:29.281Z,26.80
2018-07-13T09:46:57.164Z,26.90
2018-07-13T09:49:24.769Z,27.30
2018-07-13T09:51:52.563Z,27.80
2018-07-13T09:54:20.269Z,28.10
2018-07-13T09:56:48.045Z,27.90
2018-07-13T09:59:15.774Z,27.80
2018-07-13T10:01:43.734Z,27.60
2018-07-13T10:04:11.627Z,27.40
2018-07-13T10:06:39.409Z,27.30
2018-07-13T10:09:07.161Z,27.30
2018-07-13T10:11:35.034Z,27.20
2018-07-13T10:14:03.257Z,28.00
2018-07-13T10:16:31.129Z,28.50
2018-07-13T10:18:58.921Z,29.10
2018-07-13T10:21:28.119Z,29.20
2018-07-13T10:23:55.992Z,29.10
2018-07-13T10:26:33.493Z,28.70
2018-07-13T10:29:03.246Z,28.50
2018-07-13T10:31:31.258Z,28.10
2018-07-13T10:33:59.109Z,27.80
2018-07-13T10:36:27.391Z,27.70
2018-07-13T10:38:55.060Z,27.50
2018-07-13T10:41:22.864Z,27.10
2018-07-13T10:43:50.702Z,27.30
2018-07-13T10:46:18.690Z,27.30
2018-07-13T10:48:46.464Z,27.50
2018-07-13T10:51:14.189Z,27.50
2018-07-13T10:53:41.975Z,27.60
2018-07-13T10:56:09.671Z,27.90
2018-07-13T10:58:37.449Z,28.10
2018-07-13T11:01:05.091Z,28.20
2018-07-13T11:03:32.992Z,28.30
2018-07-13T11:06:00.652Z,28.40
2018-07-13T11:08:28.372Z,28.30
2018-07-13T11:10:56.077Z,28.30
2018-07-13T11:13:23.751Z,28.20
2018-07-13T11:15:51.565Z,27.70
2018-07-13T11:18:19.244Z,28.00
2018-07-13T11:20:47.042Z,28.30
2018-07-13T11:23:14.707Z,28.60
2018-07-13T11:25:42.402Z,28.70
2018-07-13T11:28:10.273Z,28.90
2018-07-13T11:30:37.945Z,29.00
2018-07-13T11:33:05.804Z,29.20
2018-07-13T11:35:33.625Z,29.10
2018-07-13T11:38:01.602Z,28.90
2018-07-13T11:40:29.321Z,28.80
2018-07-13T11:42:57.051Z,29.20
2018-07-13T11:45:24.761Z,29.40
2018-07-13T11:47:52.467Z,29.40
2018-07-13T11:50:20.133Z,29.90
2018-07-13T11:52:47.789Z,30.10
2018-07-13T11:55:15.521Z,30.20
2018-07-13T11:57:43.210Z,29.80
2018-07-13T12:00:10.971Z,29.80
2018-07-13T12:02:38.667Z,30.00
2018-07-13T12:05:06.341Z,30.00
2018-07-13T12:07:34.137Z,30.20
2018-07-13T12:10:01.983Z,31.10
2018-07-13T12:12:29.636Z,31.40
2018-07-13T12:14:57.329Z,30.90
2018-07-13T12:17:25.026Z,31.20
2018-07-13T12:19:52.751Z,31.60
2018-07-13T12:22:20.405Z,32.20
2018-07-13T12:24:48.130Z,32.50
2018-07-13T12:27:15.817Z,32.10
2018-07-13T12:29:43.513Z,31.70
2018-07-13T12:32:11.187Z,31.30
2018-07-13T12:37:06.530Z,31.30
2018-07-13T12:39:34.225Z,31.30
2018-07-13T12:42:01.918Z,31.10
2018-07-13T12:44:29.672Z,31.20
2018-07-13T12:49:24.956Z,31.40
2018-07-13T12:51:52.790Z,31.60
2018-07-13T12:54:20.726Z,31.90
2018-07-13T12:56:48.344Z,31.90
2018-07-13T12:59:15.985Z,31.80
2018-07-13T13:01:43.687Z,31.80
2018-07-13T13:04:11.402Z,31.90
2018-07-13T13:06:39.106Z,31.60
2018-07-13T13:09:06.861Z,31.70
2018-07-13T13:11:34.641Z,31.80
2018-07-13T13:14:02.879Z,32.10
2018-07-13T13:16:30.576Z,32.40
2018-07-13T13:18:58.549Z,32.40
2018-07-13T13:21:26.412Z,32.70
2018-07-13T13:23:54.125Z,32.10
2018-07-13T13:26:21.837Z,32.30
2018-07-13T13:28:49.520Z,32.30
2018-07-13T13:31:17.213Z,32.10
2018-07-13T13:33:44.919Z,32.00
2018-07-13T13:36:12.985Z,32.00
2018-07-13T13:38:40.821Z,32.20
2018-07-13T13:41:08.517Z,32.00
2018-07-13T13:43:36.213Z,32.50
2018-07-13T13:48:32.101Z,33.00
2018-07-13T13:50:59.975Z,33.70
2018-07-13T13:53:27.674Z,34.20
2018-07-13T13:55:55.370Z,34.90
2018-07-13T13:58:23.061Z,35.00
2018-07-13T14:00:50.802Z,35.00
2018-07-13T14:03:18.637Z,35.70
2018-07-13T14:05:47.022Z,36.40
2018-07-13T14:08:15.105Z,36.30
2018-07-13T14:10:42.832Z,35.80
2018-07-13T14:13:10.560Z,35.10
2018-07-13T14:15:38.320Z,34.60
2018-07-13T14:18:06.013Z,34.40
2018-07-13T14:20:33.690Z,34.80
2018-07-13T14:23:01.353Z,35.20
2018-07-13T14:25:29.067Z,35.90
2018-07-13T14:27:56.890Z,35.00
2018-07-13T14:30:24.573Z,34.80
2018-07-13T14:32:52.273Z,35.10
2018-07-13T14:35:20.017Z,35.60
2018-07-13T14:37:48.125Z,36.00
2018-07-13T14:40:15.892Z,36.40
2018-07-13T14:42:43.744Z,37.40
2018-07-13T14:45:11.560Z,36.60
2018-07-13T14:47:39.624Z,37.20
2018-07-13T14:50:07.370Z,36.90
2018-07-13T14:52:35.047Z,36.40
2018-07-13T14:55:02.828Z,36.70
2018-07-13T14:57:30.570Z,37.40
2018-07-13T14:59:58.293Z,36.80
2018-07-13T15:02:25.985Z,36.70
2018-07-13T15:04:53.677Z,37.30
2018-07-13T15:07:21.444Z,37.30
2018-07-13T15:09:49.148Z,37.20
2018-07-13T15:12:16.872Z,37.50
2018-07-13T15:14:44.622Z,37.50
2018-07-13T15:17:12.272Z,37.30
2018-07-13T15:19:39.927Z,37.30
2018-07-13T15:22:07.583Z,37.10
2018-07-13T15:24:35.269Z,37.60
2018-07-13T15:27:02.939Z,38.10
2018-07-13T15:29:30.581Z,38.50
2018-07-13T15:31:58.295Z,38.80
2018-07-13T15:34:26.021Z,38.90
2018-07-13T15:36:53.857Z,38.40
2018-07-13T15:39:21.544Z,38.60
2018-07-13T15:41:49.279Z,38.80
2018-07-13T15:44:17.013Z,39.60
2018-07-13T15:46:44.893Z,38.50
2018-07-13T15:49:12.595Z,39.30
2018-07-13T15:51:40.284Z,39.10
2018-07-13T15:54:08.034Z,39.00
2018-07-13T15:56:35.758Z,38.70
2018-07-13T15:59:03.476Z,38.50
2018-07-13T16:01:31.202Z,38.60
2018-07-13T16:03:58.877Z,38.50
2018-07-13T16:06:26.575Z,37.90
2018-07-13T16:08:54.272Z,38.00
2018-07-13T16:11:21.932Z,37.60
2018-07-13T16:13:49.982Z,36.80
2018-07-13T16:16:17.786Z,37.00
2018-07-13T16:18:45.396Z,37.10
2018-07-13T16:21:13.122Z,37.50
2018-07-13T16:23:41.822Z,37.70
2018-07-13T16:26:09.497Z,37.70
2018-07-13T16:28:37.214Z,37.80
2018-07-13T16:31:05.118Z,37.50
2018-07-13T16:33:32.875Z,37.80
2018-07-13T16:36:00.601Z,38.00
2018-07-13T16:38:28.332Z,38.30
2018-07-13T16:40:56.028Z,38.20
2018-07-13T16:43:23.730Z,38.10
2018-07-13T16:45:51.409Z,38.30
2018-07-13T16:48:19.073Z,38.30
2018-07-13T16:50:46.834Z,37.90
2018-07-13T16:53:14.501Z,37.30
2018-07-13T16:55:42.225Z,37.70
2018-07-13T16:58:09.893Z,38.10
2018-07-13T17:00:37.585Z,37.60
2018-07-13T17:03:05.462Z,37.60
2018-07-13T17:05:33.118Z,37.70
2018-07-13T17:08:00.805Z,37.70
2018-07-13T17:10:28.477Z,37.60
2018-07-13T17:12:56.144Z,37.60
2018-07-13T17:15:23.842Z,36.80
2018-07-13T17:17:51.523Z,36.90
2018-07-13T17:20:19.242Z,36.40
2018-07-13T17:22:46.987Z,36.50
2018-07-13T17:25:14.682Z,36.60
2018-07-13T17:27:42.370Z,36.50
2018-07-13T17:30:10.561Z,36.30
2018-07-13T17:32:38.603Z,36.10
2018-07-13T17:35:06.369Z,35.80
2018-07-13T17:37:34.185Z,35.60
2018-07-13T17:40:02.024Z,35.20
2018-07-13T17:42:29.743Z,35.00
2018-07-13T17:44:57.559Z,35.10
2018-07-13T17:47:25.339Z,35.40
2018-07-13T17:49:53.098Z,35.70
2018-07-13T17:52:20.812Z,35.50
2018-07-13T17:54:48.497Z,35.30
2018-07-13T17:57:16.225Z,35.00
2018-07-13T17:59:43.934Z,35.00
2018-07-13T18:02:11.591Z,35.20
2018-07-13T18:04:39.283Z,35.00
2018-07-13T18:07:07.032Z,34.80
2018-07-13T18:09:34.719Z,34.30
2018-07-13T18:12:02.408Z,33.90
2018-07-13T18:14:30.053Z,33.40
2018-07-13T18:16:57.742Z,32.60
2018-07-13T18:19:25.417Z,32.10
2018-07-13T18:21:53.078Z,31.30
2018-07-13T18:24:20.856Z,30.90
2018-07-13T18:26:48.506Z,30.60
2018-07-13T18:29:16.197Z,30.10
2018-07-13T18:31:43.931Z,29.60
2018-07-13T18:34:11.617Z,29.30
2018-07-13T18:36:39.287Z,29.00
2018-07-13T18:39:07.258Z,28.70
2018-07-13T18:41:34.977Z,28.60
2018-07-13T18:44:02.697Z,28.30
2018-07-13T18:46:30.351Z,28.20
2018-07-13T18:48:58.097Z,27.90
2018-07-13T18:51:25.779Z,27.80
2018-07-13T18:53:53.453Z,27.60
2018-07-13T18:56:21.219Z,27.40
2018-07-13T18:58:48.966Z,27.40
2018-07-13T19:01:16.589Z,27.20
2018-07-13T19:03:44.313Z,27.10
2018-07-13T19:06:12.059Z,26.90
2018-07-13T19:08:39.788Z,26.70
2018-07-13T19:11:07.480Z,26.70
2018-07-13T19:13:35.223Z,26.60
2018-07-13T19:16:02.898Z,26.20
2018-07-13T19:18:30.630Z,26.00
2018-07-13T19:20:58.291Z,25.90
2018-07-13T19:25:53.587Z,25.80
2018-07-13T19:28:22.201Z,25.80
2018-07-13T19:30:50.004Z,25.60
2018-07-13T19:33:17.678Z,25.50
2018-07-13T19:35:45.350Z,25.40
2018-07-13T19:38:13.063Z,25.30
2018-07-13T19:40:40.795Z,25.20
2018-07-13T19:43:08.526Z,25.20
2018-07-13T19:45:36.393Z,25.10
2018-07-13T19:48:05.275Z,25.00
2018-07-13T19:50:32.934Z,24.80
2018-07-13T19:53:00.613Z,24.80
2018-07-13T19:55:28.340Z,24.80
2018-07-13T19:57:56.055Z,24.60
2018-07-13T20:00:23.720Z,24.50
2018-07-13T20:02:51.484Z,24.50
2018-07-13T20:05:19.096Z,24.30
2018-07-13T20:07:46.775Z,24.10
2018-07-13T20:10:14.494Z,24.00
2018-07-13T20:12:42.290Z,23.90
2018-07-13T20:15:10.175Z,23.80
2018-07-13T20:17:37.853Z,23.70
2018-07-13T20:20:07.344Z,23.60
2018-07-13T20:22:35.201Z,23.60
2018-07-13T20:25:03.181Z,23.50
2018-07-13T20:27:31.223Z,23.40
2018-07-13T20:29:59.429Z,23.40
2018-07-13T20:32:27.829Z,23.40
2018-07-13T20:34:56.588Z,23.30
2018-07-13T20:37:24.595Z,23.20
2018-07-13T20:39:52.546Z,23.10
2018-07-13T20:42:20.630Z,23.10
2018-07-13T20:44:48.592Z,23.00
2018-07-13T20:47:16.674Z,22.90
2018-07-13T20:49:44.533Z,22.80
2018-07-13T20:52:12.608Z,22.60
2018-07-13T20:54:40.496Z,22.50
2018-07-13T20:57:08.287Z,22.50
2018-07-13T20:59:36.094Z,22.50
2018-07-13T21:02:04.284Z,22.30
2018-07-13T21:04:32.368Z,22.20
2018-07-13T21:07:00.286Z,22.20
2018-07-13T21:09:28.039Z,22.10
2018-07-13T21:11:55.938Z,22.00
2018-07-13T21:14:24.037Z,21.90
2018-07-13T21:16:51.805Z,21.90
2018-07-13T21:19:19.599Z,21.80
2018-07-13T21:21:47.435Z,21.70
2018-07-13T21:24:15.262Z,21.60
2018-07-13T21:26:43.217Z,21.60
2018-07-13T21:29:11.019Z,21.60
2018-07-13T21:31:38.847Z,21.40
2018-07-13T21:34:06.779Z,21.50
2018-07-13T21:36:34.563Z,21.50
2018-07-13T21:39:02.534Z,21.40
2018-07-13T21:41:30.534Z,21.30
2018-07-13T21:43:58.328Z,21.30
2018-07-13T21:46:26.158Z,21.10
2018-07-13T21:48:54.406Z,21.20
2018-07-13T21:51:22.144Z,21.20
2018-07-13T21:53:49.975Z,21.20
2018-07-13T21:56:17.967Z,21.10
2018-07-13T21:58:45.805Z,21.00
2018-07-13T22:01:13.648Z,20.80
2018-07-13T22:03:41.455Z,20.80
2018-07-13T22:06:09.275Z,20.80
2018-07-13T22:08:37.295Z,20.70
2018-07-13T22:11:05.090Z,20.70
2018-07-13T22:13:33.052Z,20.60
2018-07-13T22:16:00.912Z,20.50
2018-07-13T22:18:28.720Z,20.40
2018-07-13T22:20:57.053Z,20.40
2018-07-13T22:23:24.802Z,20.40
2018-07-13T22:25:52.580Z,20.40
2018-07-13T22:28:20.355Z,20.40
2018-07-13T22:30:48.586Z,20.40
2018-07-13T22:33:16.502Z,20.40
2018-07-13T22:35:44.263Z,20.30
2018-07-13T22:38:12.055Z,20.20
2018-07-13T22:40:39.826Z,20.20
2018-07-13T22:43:08.036Z,20.10
2018-07-13T22:45:35.853Z,20.10
2018-07-13T22:48:03.679Z,20.00
2018-07-13T22:50:31.470Z,19.90
2018-07-13T22:52:59.275Z,19.90
2018-07-13T22:55:27.032Z,19.80
2018-07-13T22:57:54.997Z,19.80
2018-07-13T23:00:23.049Z,19.90
2018-07-13T23:02:50.844Z,19.90
2018-07-13T23:05:18.809Z,19.80
2018-07-13T23:10:14.286Z,19.70
2018-07-13T23:12:42.161Z,19.70
2018-07-13T23:15:10.058Z,19.70
2018-07-13T23:17:37.890Z,19.60
2018-07-13T23:20:05.740Z,19.60
2018-07-13T23:22:33.509Z,19.60
2018-07-13T23:25:01.758Z,19.60
2018-07-13T23:27:29.550Z,19.60
2018-07-13T23:29:57.361Z,19.50
2018-07-13T23:32:25.128Z,19.50
2018-07-13T23:34:53.208Z,19.40
2018-07-13T23:37:21.005Z,19.30
2018-07-13T23:39:48.822Z,19.20
2018-07-13T23:42:16.658Z,19.10
2018-07-13T23:44:44.440Z,19.10
2018-07-13T23:47:12.210Z,19.10
2018-07-13T23:49:40.243Z,19.10
2018-07-13T23:52:08.071Z,19.20
2018-07-13T23:54:36.111Z,19.20
2018-07-13T23:57:04.017Z,19.20
2018-07-13T23:59:31.862Z,19.10
